sensor_id;sensor_type;location;lat;lon;timestamp;P1;durP1;ratioP1;P2;durP2;ratioP2
12554;SDS011;6343;50.868;4.700;2023-07-08T00:01:56;9.33;;;4.67;;
12554;SDS011;6343;50.868;4.700;2023-07-08T00:04:22;9.27;;;4.60;;
12554;SDS011;6343;50.868;4.700;2023-07-08T00:06:48;9.57;;;5.50;;
12554;SDS011;6343;50.868;4.700;2023-07-08T00:09:14;13.00;;;5.20;;
12554;SDS011;6343;50.868;4.700;2023-07-08T00:11:40;6.47;;;4.80;;
12554;SDS011;6343;50.868;4.700;2023-07-08T00:14:07;9.93;;;5.30;;
12554;SDS011;6343;50.868;4.700;2023-07-08T00:16:33;6.67;;;5.27;;
12554;SDS011;6343;50.868;4.700;2023-07-08T00:19:00;6.87;;;4.83;;
12554;SDS011;6343;50.868;4.700;2023-07-08T00:21:26;6.77;;;4.90;;
12554;SDS011;6343;50.868;4.700;2023-07-08T00:23:53;8.17;;;5.17;;
12554;SDS011;6343;50.868;4.700;2023-07-08T00:26:29;8.63;;;5.33;;
12554;SDS011;6343;50.868;4.700;2023-07-08T00:28:55;8.63;;;5.47;;
12554;SDS011;6343;50.868;4.700;2023-07-08T00:31:25;8.47;;;5.13;;
12554;SDS011;6343;50.868;4.700;2023-07-08T00:33:52;9.53;;;5.03;;
12554;SDS011;6343;50.868;4.700;2023-07-08T00:36:20;8.47;;;5.03;;
12554;SDS011;6343;50.868;4.700;2023-07-08T00:38:46;7.40;;;4.80;;
12554;SDS011;6343;50.868;4.700;2023-07-08T00:43:44;10.50;;;4.60;;
12554;SDS011;6343;50.868;4.700;2023-07-08T00:48:40;7.13;;;4.60;;
12554;SDS011;6343;50.868;4.700;2023-07-08T00:51:09;8.57;;;4.60;;
12554;SDS011;6343;50.868;4.700;2023-07-08T00:53:37;5.70;;;4.07;;
12554;SDS011;6343;50.868;4.700;2023-07-08T00:56:06;7.23;;;4.17;;
12554;SDS011;6343;50.868;4.700;2023-07-08T00:58:39;7.00;;;4.20;;
12554;SDS011;6343;50.868;4.700;2023-07-08T01:01:07;6.00;;;4.70;;
12554;SDS011;6343;50.868;4.700;2023-07-08T01:03:42;8.87;;;4.77;;
12554;SDS011;6343;50.868;4.700;2023-07-08T01:06:10;6.73;;;4.77;;
12554;SDS011;6343;50.868;4.700;2023-07-08T01:08:37;7.73;;;4.27;;
12554;SDS011;6343;50.868;4.700;2023-07-08T01:11:03;10.20;;;4.83;;
12554;SDS011;6343;50.868;4.700;2023-07-08T01:13:31;8.30;;;4.07;;
12554;SDS011;6343;50.868;4.700;2023-07-08T01:15:58;7.07;;;4.47;;
12554;SDS011;6343;50.868;4.700;2023-07-08T01:18:24;5.93;;;4.50;;
12554;SDS011;6343;50.868;4.700;2023-07-08T01:20:51;5.77;;;4.57;;
12554;SDS011;6343;50.868;4.700;2023-07-08T01:23:20;7.23;;;4.47;;
12554;SDS011;6343;50.868;4.700;2023-07-08T01:25:46;8.40;;;4.87;;
12554;SDS011;6343;50.868;4.700;2023-07-08T01:28:13;5.93;;;4.10;;
12554;SDS011;6343;50.868;4.700;2023-07-08T01:30:43;6.00;;;4.70;;
12554;SDS011;6343;50.868;4.700;2023-07-08T01:33:14;7.67;;;4.90;;
12554;SDS011;6343;50.868;4.700;2023-07-08T01:35:42;7.23;;;4.57;;
12554;SDS011;6343;50.868;4.700;2023-07-08T01:38:09;6.77;;;4.47;;
12554;SDS011;6343;50.868;4.700;2023-07-08T01:40:36;6.37;;;4.73;;
12554;SDS011;6343;50.868;4.700;2023-07-08T01:43:03;6.20;;;4.87;;
12554;SDS011;6343;50.868;4.700;2023-07-08T01:45:34;10.90;;;5.30;;
12554;SDS011;6343;50.868;4.700;2023-07-08T01:48:03;7.63;;;4.43;;
12554;SDS011;6343;50.868;4.700;2023-07-08T01:50:30;5.77;;;4.47;;
12554;SDS011;6343;50.868;4.700;2023-07-08T01:52:58;7.97;;;5.13;;
12554;SDS011;6343;50.868;4.700;2023-07-08T01:55:25;8.23;;;5.17;;
12554;SDS011;6343;50.868;4.700;2023-07-08T01:57:53;6.43;;;4.50;;
12554;SDS011;6343;50.868;4.700;2023-07-08T02:00:20;8.70;;;4.83;;
12554;SDS011;6343;50.868;4.700;2023-07-08T02:02:47;7.33;;;5.27;;
12554;SDS011;6343;50.868;4.700;2023-07-08T02:05:13;7.60;;;4.77;;
12554;SDS011;6343;50.868;4.700;2023-07-08T02:07:39;6.67;;;4.90;;
12554;SDS011;6343;50.868;4.700;2023-07-08T02:10:05;6.03;;;4.10;;
12554;SDS011;6343;50.868;4.700;2023-07-08T02:12:31;9.00;;;4.67;;
12554;SDS011;6343;50.868;4.700;2023-07-08T02:14:59;5.87;;;4.50;;
12554;SDS011;6343;50.868;4.700;2023-07-08T02:17:26;6.10;;;4.73;;
12554;SDS011;6343;50.868;4.700;2023-07-08T02:19:54;6.90;;;4.73;;
12554;SDS011;6343;50.868;4.700;2023-07-08T02:22:20;6.97;;;4.50;;
12554;SDS011;6343;50.868;4.700;2023-07-08T02:24:46;10.23;;;4.90;;
12554;SDS011;6343;50.868;4.700;2023-07-08T02:27:13;5.87;;;4.00;;
12554;SDS011;6343;50.868;4.700;2023-07-08T02:29:39;6.63;;;4.67;;
12554;SDS011;6343;50.868;4.700;2023-07-08T02:32:05;7.50;;;4.60;;
12554;SDS011;6343;50.868;4.700;2023-07-08T02:34:31;6.00;;;5.00;;
12554;SDS011;6343;50.868;4.700;2023-07-08T02:36:57;5.60;;;4.20;;
12554;SDS011;6343;50.868;4.700;2023-07-08T02:39:23;9.63;;;4.97;;
12554;SDS011;6343;50.868;4.700;2023-07-08T02:41:49;6.37;;;4.13;;
12554;SDS011;6343;50.868;4.700;2023-07-08T02:44:16;8.67;;;4.60;;
12554;SDS011;6343;50.868;4.700;2023-07-08T02:46:42;7.73;;;4.87;;
12554;SDS011;6343;50.868;4.700;2023-07-08T02:49:08;6.27;;;4.83;;
12554;SDS011;6343;50.868;4.700;2023-07-08T02:51:34;8.53;;;4.63;;
12554;SDS011;6343;50.868;4.700;2023-07-08T02:54:00;7.57;;;4.90;;
12554;SDS011;6343;50.868;4.700;2023-07-08T02:56:26;12.27;;;4.93;;
12554;SDS011;6343;50.868;4.700;2023-07-08T02:58:52;6.27;;;4.90;;
12554;SDS011;6343;50.868;4.700;2023-07-08T03:01:18;7.17;;;4.40;;
12554;SDS011;6343;50.868;4.700;2023-07-08T03:03:45;5.73;;;4.77;;
12554;SDS011;6343;50.868;4.700;2023-07-08T03:06:11;8.07;;;4.47;;
12554;SDS011;6343;50.868;4.700;2023-07-08T03:08:38;7.30;;;4.70;;
12554;SDS011;6343;50.868;4.700;2023-07-08T03:11:04;12.30;;;5.50;;
12554;SDS011;6343;50.868;4.700;2023-07-08T03:13:32;5.57;;;4.40;;
12554;SDS011;6343;50.868;4.700;2023-07-08T03:15:59;8.83;;;4.33;;
12554;SDS011;6343;50.868;4.700;2023-07-08T03:18:25;5.73;;;4.03;;
12554;SDS011;6343;50.868;4.700;2023-07-08T03:20:52;9.00;;;4.53;;
12554;SDS011;6343;50.868;4.700;2023-07-08T03:23:18;6.80;;;4.70;;
12554;SDS011;6343;50.868;4.700;2023-07-08T03:25:44;6.47;;;4.33;;
12554;SDS011;6343;50.868;4.700;2023-07-08T03:28:10;6.23;;;4.57;;
12554;SDS011;6343;50.868;4.700;2023-07-08T03:30:43;6.43;;;4.93;;
12554;SDS011;6343;50.868;4.700;2023-07-08T03:33:10;7.93;;;4.57;;
12554;SDS011;6343;50.868;4.700;2023-07-08T03:35:36;6.10;;;4.40;;
12554;SDS011;6343;50.868;4.700;2023-07-08T03:38:03;6.63;;;4.50;;
12554;SDS011;6343;50.868;4.700;2023-07-08T03:40:30;7.47;;;4.47;;
12554;SDS011;6343;50.868;4.700;2023-07-08T03:42:56;9.03;;;4.80;;
12554;SDS011;6343;50.868;4.700;2023-07-08T03:45:22;6.10;;;4.77;;
12554;SDS011;6343;50.868;4.700;2023-07-08T03:47:48;7.27;;;4.27;;
12554;SDS011;6343;50.868;4.700;2023-07-08T03:50:19;6.80;;;4.80;;
12554;SDS011;6343;50.868;4.700;2023-07-08T03:52:46;8.50;;;5.00;;
12554;SDS011;6343;50.868;4.700;2023-07-08T03:55:12;6.13;;;4.50;;
12554;SDS011;6343;50.868;4.700;2023-07-08T03:57:38;7.13;;;4.70;;
12554;SDS011;6343;50.868;4.700;2023-07-08T04:00:05;6.87;;;4.80;;
12554;SDS011;6343;50.868;4.700;2023-07-08T04:02:38;9.80;;;5.03;;
12554;SDS011;6343;50.868;4.700;2023-07-08T04:05:04;7.40;;;4.63;;
12554;SDS011;6343;50.868;4.700;2023-07-08T04:07:31;8.27;;;4.27;;
12554;SDS011;6343;50.868;4.700;2023-07-08T04:09:57;8.40;;;4.47;;
12554;SDS011;6343;50.868;4.700;2023-07-08T04:12:23;7.00;;;4.13;;
12554;SDS011;6343;50.868;4.700;2023-07-08T04:14:49;8.90;;;4.40;;
12554;SDS011;6343;50.868;4.700;2023-07-08T04:17:15;6.30;;;4.30;;
12554;SDS011;6343;50.868;4.700;2023-07-08T04:19:44;7.03;;;4.90;;
12554;SDS011;6343;50.868;4.700;2023-07-08T04:22:10;7.80;;;5.00;;
12554;SDS011;6343;50.868;4.700;2023-07-08T04:24:36;9.93;;;4.73;;
12554;SDS011;6343;50.868;4.700;2023-07-08T04:27:02;7.83;;;5.00;;
12554;SDS011;6343;50.868;4.700;2023-07-08T04:29:28;6.73;;;5.00;;
12554;SDS011;6343;50.868;4.700;2023-07-08T04:31:54;7.17;;;4.87;;
12554;SDS011;6343;50.868;4.700;2023-07-08T04:34:21;7.13;;;4.70;;
12554;SDS011;6343;50.868;4.700;2023-07-08T04:36:47;6.33;;;4.77;;
12554;SDS011;6343;50.868;4.700;2023-07-08T04:39:13;10.13;;;4.77;;
12554;SDS011;6343;50.868;4.700;2023-07-08T04:41:39;6.63;;;4.37;;
12554;SDS011;6343;50.868;4.700;2023-07-08T04:44:09;12.43;;;5.00;;
12554;SDS011;6343;50.868;4.700;2023-07-08T04:49:11;6.50;;;5.20;;
12554;SDS011;6343;50.868;4.700;2023-07-08T04:51:38;10.03;;;5.50;;
12554;SDS011;6343;50.868;4.700;2023-07-08T04:54:04;9.40;;;5.70;;
12554;SDS011;6343;50.868;4.700;2023-07-08T04:59:03;11.63;;;5.47;;
12554;SDS011;6343;50.868;4.700;2023-07-08T05:01:30;7.30;;;5.33;;
12554;SDS011;6343;50.868;4.700;2023-07-08T05:03:56;7.27;;;4.93;;
12554;SDS011;6343;50.868;4.700;2023-07-08T05:06:22;9.60;;;5.10;;
12554;SDS011;6343;50.868;4.700;2023-07-08T05:08:48;11.47;;;6.10;;
12554;SDS011;6343;50.868;4.700;2023-07-08T05:11:14;7.30;;;5.33;;
12554;SDS011;6343;50.868;4.700;2023-07-08T05:13:40;9.33;;;5.87;;
12554;SDS011;6343;50.868;4.700;2023-07-08T05:16:06;8.07;;;5.73;;
12554;SDS011;6343;50.868;4.700;2023-07-08T05:18:32;8.70;;;5.67;;
12554;SDS011;6343;50.868;4.700;2023-07-08T05:20:58;9.40;;;5.30;;
12554;SDS011;6343;50.868;4.700;2023-07-08T05:23:24;8.07;;;5.80;;
12554;SDS011;6343;50.868;4.700;2023-07-08T05:25:51;8.87;;;5.47;;
12554;SDS011;6343;50.868;4.700;2023-07-08T05:28:17;9.13;;;4.97;;
12554;SDS011;6343;50.868;4.700;2023-07-08T05:30:43;8.43;;;5.87;;
12554;SDS011;6343;50.868;4.700;2023-07-08T05:33:09;8.67;;;5.50;;
12554;SDS011;6343;50.868;4.700;2023-07-08T05:35:35;13.87;;;5.53;;
12554;SDS011;6343;50.868;4.700;2023-07-08T05:38:01;14.53;;;5.57;;
12554;SDS011;6343;50.868;4.700;2023-07-08T05:40:28;13.47;;;5.83;;
12554;SDS011;6343;50.868;4.700;2023-07-08T05:42:55;12.03;;;5.90;;
12554;SDS011;6343;50.868;4.700;2023-07-08T05:45:21;10.33;;;5.87;;
12554;SDS011;6343;50.868;4.700;2023-07-08T05:47:47;9.13;;;5.40;;
12554;SDS011;6343;50.868;4.700;2023-07-08T05:50:13;9.83;;;5.93;;
12554;SDS011;6343;50.868;4.700;2023-07-08T05:52:39;9.00;;;6.20;;
12554;SDS011;6343;50.868;4.700;2023-07-08T05:55:05;8.93;;;5.73;;
12554;SDS011;6343;50.868;4.700;2023-07-08T05:57:31;7.70;;;5.47;;
12554;SDS011;6343;50.868;4.700;2023-07-08T05:59:57;9.17;;;5.67;;
12554;SDS011;6343;50.868;4.700;2023-07-08T06:02:24;6.60;;;5.10;;
12554;SDS011;6343;50.868;4.700;2023-07-08T06:04:51;7.87;;;4.83;;
12554;SDS011;6343;50.868;4.700;2023-07-08T06:07:17;9.87;;;6.27;;
12554;SDS011;6343;50.868;4.700;2023-07-08T06:09:43;8.47;;;5.70;;
12554;SDS011;6343;50.868;4.700;2023-07-08T06:12:10;10.17;;;6.33;;
12554;SDS011;6343;50.868;4.700;2023-07-08T06:14:36;11.10;;;6.27;;
12554;SDS011;6343;50.868;4.700;2023-07-08T06:17:03;10.13;;;5.37;;
12554;SDS011;6343;50.868;4.700;2023-07-08T06:19:30;8.60;;;5.73;;
12554;SDS011;6343;50.868;4.700;2023-07-08T06:21:56;10.10;;;6.63;;
12554;SDS011;6343;50.868;4.700;2023-07-08T06:24:23;9.40;;;5.60;;
12554;SDS011;6343;50.868;4.700;2023-07-08T06:26:49;7.97;;;5.95;;
12554;SDS011;6343;50.868;4.700;2023-07-08T06:29:15;7.65;;;5.47;;
12554;SDS011;6343;50.868;4.700;2023-07-08T06:31:41;8.10;;;5.20;;
12554;SDS011;6343;50.868;4.700;2023-07-08T06:34:07;8.88;;;5.80;;
12554;SDS011;6343;50.868;4.700;2023-07-08T06:36:33;11.57;;;5.75;;
12554;SDS011;6343;50.868;4.700;2023-07-08T06:39:00;7.05;;;5.40;;
12554;SDS011;6343;50.868;4.700;2023-07-08T06:41:26;6.78;;;5.20;;
12554;SDS011;6343;50.868;4.700;2023-07-08T06:43:52;7.88;;;5.40;;
12554;SDS011;6343;50.868;4.700;2023-07-08T06:46:18;6.95;;;5.03;;
12554;SDS011;6343;50.868;4.700;2023-07-08T06:48:45;8.57;;;5.25;;
12554;SDS011;6343;50.868;4.700;2023-07-08T06:51:11;9.88;;;4.97;;
12554;SDS011;6343;50.868;4.700;2023-07-08T06:53:37;11.85;;;5.55;;
12554;SDS011;6343;50.868;4.700;2023-07-08T06:56:03;11.77;;;5.43;;
12554;SDS011;6343;50.868;4.700;2023-07-08T06:58:29;10.60;;;5.25;;
12554;SDS011;6343;50.868;4.700;2023-07-08T07:00:55;8.90;;;5.05;;
12554;SDS011;6343;50.868;4.700;2023-07-08T07:03:21;7.18;;;5.18;;
12554;SDS011;6343;50.868;4.700;2023-07-08T07:05:48;12.90;;;6.00;;
12554;SDS011;6343;50.868;4.700;2023-07-08T07:08:14;11.98;;;6.25;;
12554;SDS011;6343;50.868;4.700;2023-07-08T07:10:40;7.30;;;5.20;;
12554;SDS011;6343;50.868;4.700;2023-07-08T07:13:06;8.30;;;5.32;;
12554;SDS011;6343;50.868;4.700;2023-07-08T07:15:32;10.80;;;5.13;;
12554;SDS011;6343;50.868;4.700;2023-07-08T07:17:58;10.90;;;5.35;;
12554;SDS011;6343;50.868;4.700;2023-07-08T07:20:25;14.23;;;5.82;;
12554;SDS011;6343;50.868;4.700;2023-07-08T07:22:51;7.75;;;5.15;;
12554;SDS011;6343;50.868;4.700;2023-07-08T07:25:17;9.68;;;4.78;;
12554;SDS011;6343;50.868;4.700;2023-07-08T07:27:43;8.93;;;5.45;;
12554;SDS011;6343;50.868;4.700;2023-07-08T07:30:09;7.85;;;5.57;;
12554;SDS011;6343;50.868;4.700;2023-07-08T07:32:40;10.35;;;5.60;;
12554;SDS011;6343;50.868;4.700;2023-07-08T07:35:06;7.72;;;5.55;;
12554;SDS011;6343;50.868;4.700;2023-07-08T07:37:32;10.75;;;5.20;;
12554;SDS011;6343;50.868;4.700;2023-07-08T07:39:58;8.68;;;5.55;;
12554;SDS011;6343;50.868;4.700;2023-07-08T07:42:26;10.60;;;5.43;;
12554;SDS011;6343;50.868;4.700;2023-07-08T07:44:52;11.00;;;5.72;;
12554;SDS011;6343;50.868;4.700;2023-07-08T07:47:18;13.88;;;5.88;;
12554;SDS011;6343;50.868;4.700;2023-07-08T07:49:44;14.40;;;5.78;;
12554;SDS011;6343;50.868;4.700;2023-07-08T07:52:11;7.90;;;5.20;;
12554;SDS011;6343;50.868;4.700;2023-07-08T07:54:37;13.05;;;5.88;;
12554;SDS011;6343;50.868;4.700;2023-07-08T07:57:04;9.98;;;5.82;;
12554;SDS011;6343;50.868;4.700;2023-07-08T07:59:30;10.93;;;5.50;;
12554;SDS011;6343;50.868;4.700;2023-07-08T08:01:56;7.68;;;4.97;;
12554;SDS011;6343;50.868;4.700;2023-07-08T08:04:22;9.98;;;5.50;;
12554;SDS011;6343;50.868;4.700;2023-07-08T08:06:48;8.88;;;5.25;;
12554;SDS011;6343;50.868;4.700;2023-07-08T08:09:14;12.68;;;5.35;;
12554;SDS011;6343;50.868;4.700;2023-07-08T08:11:41;12.48;;;5.85;;
12554;SDS011;6343;50.868;4.700;2023-07-08T08:14:07;14.70;;;5.63;;
12554;SDS011;6343;50.868;4.700;2023-07-08T08:16:33;11.63;;;5.53;;
12554;SDS011;6343;50.868;4.700;2023-07-08T08:18:59;13.32;;;5.38;;
12554;SDS011;6343;50.868;4.700;2023-07-08T08:21:25;11.20;;;5.53;;
12554;SDS011;6343;50.868;4.700;2023-07-08T08:23:51;8.95;;;4.97;;
12554;SDS011;6343;50.868;4.700;2023-07-08T08:26:17;9.45;;;5.35;;
12554;SDS011;6343;50.868;4.700;2023-07-08T08:28:43;18.48;;;6.18;;
12554;SDS011;6343;50.868;4.700;2023-07-08T08:31:09;11.73;;;5.57;;
12554;SDS011;6343;50.868;4.700;2023-07-08T08:33:36;14.80;;;5.57;;
12554;SDS011;6343;50.868;4.700;2023-07-08T08:36:02;8.20;;;6.47;;
12554;SDS011;6343;50.868;4.700;2023-07-08T08:38:28;11.35;;;6.43;;
12554;SDS011;6343;50.868;4.700;2023-07-08T08:40:54;10.20;;;5.53;;
12554;SDS011;6343;50.868;4.700;2023-07-08T08:43:25;12.45;;;7.90;;
12554;SDS011;6343;50.868;4.700;2023-07-08T08:48:30;8.50;;;5.70;;
12554;SDS011;6343;50.868;4.700;2023-07-08T08:51:00;10.05;;;6.03;;
12554;SDS011;6343;50.868;4.700;2023-07-08T08:53:27;8.38;;;5.18;;
12554;SDS011;6343;50.868;4.700;2023-07-08T08:55:59;9.75;;;5.57;;
12554;SDS011;6343;50.868;4.700;2023-07-08T08:58:28;9.30;;;5.35;;
12554;SDS011;6343;50.868;4.700;2023-07-08T09:00:57;12.20;;;5.90;;
12554;SDS011;6343;50.868;4.700;2023-07-08T09:06:19;85.82;;;14.90;;
12554;SDS011;6343;50.868;4.700;2023-07-08T09:08:45;7.85;;;5.00;;
12554;SDS011;6343;50.868;4.700;2023-07-08T09:11:21;10.02;;;5.32;;
12554;SDS011;6343;50.868;4.700;2023-07-08T09:13:49;8.57;;;5.85;;
12554;SDS011;6343;50.868;4.700;2023-07-08T09:19:00;7.75;;;5.68;;
12554;SDS011;6343;50.868;4.700;2023-07-08T09:21:32;7.80;;;5.50;;
12554;SDS011;6343;50.868;4.700;2023-07-08T09:23:59;10.55;;;5.50;;
12554;SDS011;6343;50.868;4.700;2023-07-08T09:26:29;9.93;;;5.03;;
12554;SDS011;6343;50.868;4.700;2023-07-08T09:28:56;8.98;;;5.38;;
12554;SDS011;6343;50.868;4.700;2023-07-08T09:31:23;11.00;;;5.57;;
12554;SDS011;6343;50.868;4.700;2023-07-08T09:33:51;8.60;;;5.28;;
12554;SDS011;6343;50.868;4.700;2023-07-08T09:36:18;9.20;;;5.43;;
12554;SDS011;6343;50.868;4.700;2023-07-08T09:38:48;12.07;;;5.85;;
12554;SDS011;6343;50.868;4.700;2023-07-08T09:41:17;8.52;;;5.82;;
12554;SDS011;6343;50.868;4.700;2023-07-08T09:44:00;9.55;;;5.53;;
12554;SDS011;6343;50.868;4.700;2023-07-08T09:46:28;10.75;;;6.32;;
12554;SDS011;6343;50.868;4.700;2023-07-08T09:48:54;12.15;;;5.80;;
12554;SDS011;6343;50.868;4.700;2023-07-08T09:51:22;10.55;;;5.63;;
12554;SDS011;6343;50.868;4.700;2023-07-08T09:53:48;9.48;;;5.35;;
12554;SDS011;6343;50.868;4.700;2023-07-08T09:56:14;9.40;;;6.05;;
12554;SDS011;6343;50.868;4.700;2023-07-08T09:58:41;11.00;;;6.05;;
12554;SDS011;6343;50.868;4.700;2023-07-08T10:01:10;12.02;;;6.10;;
12554;SDS011;6343;50.868;4.700;2023-07-08T10:03:37;8.65;;;6.05;;
12554;SDS011;6343;50.868;4.700;2023-07-08T10:06:05;8.65;;;5.60;;
12554;SDS011;6343;50.868;4.700;2023-07-08T10:08:36;10.57;;;5.88;;
12554;SDS011;6343;50.868;4.700;2023-07-08T10:11:51;12.18;;;5.65;;
12554;SDS011;6343;50.868;4.700;2023-07-08T10:13:52;12.90;;;7.28;;
12554;SDS011;6343;50.868;4.700;2023-07-08T10:16:40;8.18;;;5.72;;
12554;SDS011;6343;50.868;4.700;2023-07-08T10:19:13;10.90;;;5.97;;
12554;SDS011;6343;50.868;4.700;2023-07-08T10:21:44;8.98;;;6.35;;
12554;SDS011;6343;50.868;4.700;2023-07-08T10:26:42;12.45;;;6.20;;
12554;SDS011;6343;50.868;4.700;2023-07-08T10:29:15;9.60;;;6.22;;
12554;SDS011;6343;50.868;4.700;2023-07-08T10:42:42;9.50;;;5.75;;
12554;SDS011;6343;50.868;4.700;2023-07-08T10:53:34;9.23;;;5.78;;
12554;SDS011;6343;50.868;4.700;2023-07-08T10:55:37;8.43;;;5.57;;
12554;SDS011;6343;50.868;4.700;2023-07-08T11:01:07;10.65;;;5.80;;
12554;SDS011;6343;50.868;4.700;2023-07-08T11:06:07;11.20;;;5.25;;
12554;SDS011;6343;50.868;4.700;2023-07-08T11:08:39;10.63;;;5.40;;
12554;SDS011;6343;50.868;4.700;2023-07-08T11:11:09;8.25;;;5.35;;
12554;SDS011;6343;50.868;4.700;2023-07-08T11:13:38;11.93;;;6.07;;
12554;SDS011;6343;50.868;4.700;2023-07-08T11:16:12;9.23;;;5.53;;
12554;SDS011;6343;50.868;4.700;2023-07-08T11:21:12;11.40;;;5.72;;
12554;SDS011;6343;50.868;4.700;2023-07-08T11:26:30;8.65;;;5.45;;
12554;SDS011;6343;50.868;4.700;2023-07-08T11:28:59;11.30;;;4.72;;
12554;SDS011;6343;50.868;4.700;2023-07-08T11:31:27;10.43;;;5.22;;
12554;SDS011;6343;50.868;4.700;2023-07-08T11:33:54;9.55;;;4.90;;
12554;SDS011;6343;50.868;4.700;2023-07-08T11:36:22;12.50;;;5.07;;
12554;SDS011;6343;50.868;4.700;2023-07-08T11:38:49;11.50;;;5.40;;
12554;SDS011;6343;50.868;4.700;2023-07-08T11:41:18;9.43;;;5.80;;
12554;SDS011;6343;50.868;4.700;2023-07-08T11:43:48;9.63;;;4.97;;
12554;SDS011;6343;50.868;4.700;2023-07-08T11:46:19;9.60;;;5.32;;
12554;SDS011;6343;50.868;4.700;2023-07-08T11:48:47;10.20;;;5.10;;
12554;SDS011;6343;50.868;4.700;2023-07-08T11:51:18;10.90;;;5.82;;
12554;SDS011;6343;50.868;4.700;2023-07-08T11:56:46;10.82;;;5.22;;
12554;SDS011;6343;50.868;4.700;2023-07-08T11:59:16;7.40;;;5.00;;
12554;SDS011;6343;50.868;4.700;2023-07-08T12:01:47;6.45;;;4.80;;
12554;SDS011;6343;50.868;4.700;2023-07-08T12:06:40;11.18;;;5.40;;
12554;SDS011;6343;50.868;4.700;2023-07-08T12:12:01;7.20;;;5.00;;
12554;SDS011;6343;50.868;4.700;2023-07-08T12:14:28;9.85;;;4.78;;
12554;SDS011;6343;50.868;4.700;2023-07-08T12:16:55;11.50;;;5.43;;
12554;SDS011;6343;50.868;4.700;2023-07-08T12:19:21;9.77;;;5.32;;
12554;SDS011;6343;50.868;4.700;2023-07-08T12:21:50;9.50;;;5.25;;
12554;SDS011;6343;50.868;4.700;2023-07-08T12:24:17;6.38;;;4.55;;
12554;SDS011;6343;50.868;4.700;2023-07-08T12:26:43;8.43;;;4.88;;
12554;SDS011;6343;50.868;4.700;2023-07-08T12:29:13;7.22;;;4.55;;
12554;SDS011;6343;50.868;4.700;2023-07-08T12:31:40;7.32;;;4.40;;
12554;SDS011;6343;50.868;4.700;2023-07-08T12:34:12;8.25;;;4.30;;
12554;SDS011;6343;50.868;4.700;2023-07-08T12:36:39;8.10;;;4.65;;
12554;SDS011;6343;50.868;4.700;2023-07-08T12:39:05;8.93;;;4.68;;
12554;SDS011;6343;50.868;4.700;2023-07-08T12:41:32;6.30;;;4.43;;
12554;SDS011;6343;50.868;4.700;2023-07-08T12:43:59;6.93;;;4.30;;
12554;SDS011;6343;50.868;4.700;2023-07-08T12:46:26;5.85;;;4.00;;
12554;SDS011;6343;50.868;4.700;2023-07-08T12:48:52;5.85;;;4.13;;
12554;SDS011;6343;50.868;4.700;2023-07-08T12:51:19;7.55;;;4.53;;
12554;SDS011;6343;50.868;4.700;2023-07-08T12:53:46;18.73;;;4.53;;
12554;SDS011;6343;50.868;4.700;2023-07-08T12:56:12;7.68;;;4.07;;
12554;SDS011;6343;50.868;4.700;2023-07-08T12:58:46;12.23;;;4.18;;
12554;SDS011;6343;50.868;4.700;2023-07-08T13:02:46;11.35;;;4.18;;
12554;SDS011;6343;50.868;4.700;2023-07-08T13:05:13;15.40;;;3.63;;
12554;SDS011;6343;50.868;4.700;2023-07-08T13:07:40;8.80;;;3.33;;
12554;SDS011;6343;50.868;4.700;2023-07-08T13:10:07;9.00;;;2.50;;
12554;SDS011;6343;50.868;4.700;2023-07-08T13:12:40;5.95;;;2.38;;
12554;SDS011;6343;50.868;4.700;2023-07-08T13:15:10;4.80;;;2.33;;
12554;SDS011;6343;50.868;4.700;2023-07-08T13:17:40;4.97;;;2.20;;
12554;SDS011;6343;50.868;4.700;2023-07-08T13:20:08;4.45;;;2.22;;
12554;SDS011;6343;50.868;4.700;2023-07-08T13:22:36;11.02;;;2.40;;
12554;SDS011;6343;50.868;4.700;2023-07-08T13:25:02;3.70;;;2.30;;
12554;SDS011;6343;50.868;4.700;2023-07-08T13:27:29;3.97;;;2.30;;
12554;SDS011;6343;50.868;4.700;2023-07-08T13:29:55;5.03;;;2.30;;
12554;SDS011;6343;50.868;4.700;2023-07-08T13:32:29;10.45;;;2.40;;
12554;SDS011;6343;50.868;4.700;2023-07-08T13:34:56;6.28;;;2.60;;
12554;SDS011;6343;50.868;4.700;2023-07-08T13:37:22;4.43;;;2.42;;
12554;SDS011;6343;50.868;4.700;2023-07-08T13:39:51;5.55;;;3.20;;
12554;SDS011;6343;50.868;4.700;2023-07-08T13:42:18;11.20;;;2.40;;
12554;SDS011;6343;50.868;4.700;2023-07-08T13:44:44;3.90;;;2.60;;
12554;SDS011;6343;50.868;4.700;2023-07-08T13:47:19;6.50;;;2.47;;
12554;SDS011;6343;50.868;4.700;2023-07-08T13:49:45;3.28;;;2.70;;
12554;SDS011;6343;50.868;4.700;2023-07-08T13:57:10;7.00;;;3.15;;
12554;SDS011;6343;50.868;4.700;2023-07-08T13:59:37;5.57;;;2.60;;
12554;SDS011;6343;50.868;4.700;2023-07-08T14:02:06;6.10;;;2.75;;
12554;SDS011;6343;50.868;4.700;2023-07-08T14:04:39;6.35;;;2.70;;
12554;SDS011;6343;50.868;4.700;2023-07-08T14:07:09;4.90;;;2.78;;
12554;SDS011;6343;50.868;4.700;2023-07-08T14:09:37;5.57;;;3.03;;
12554;SDS011;6343;50.868;4.700;2023-07-08T14:12:03;6.65;;;2.90;;
12554;SDS011;6343;50.868;4.700;2023-07-08T14:14:29;7.63;;;3.70;;
12554;SDS011;6343;50.868;4.700;2023-07-08T14:16:55;8.93;;;3.10;;
12554;SDS011;6343;50.868;4.700;2023-07-08T14:19:28;7.82;;;3.42;;
12554;SDS011;6343;50.868;4.700;2023-07-08T14:21:56;11.13;;;3.00;;
12554;SDS011;6343;50.868;4.700;2023-07-08T14:24:23;4.85;;;3.13;;
12554;SDS011;6343;50.868;4.700;2023-07-08T14:26:49;7.93;;;3.53;;
12554;SDS011;6343;50.868;4.700;2023-07-08T14:29:16;5.65;;;3.10;;
12554;SDS011;6343;50.868;4.700;2023-07-08T14:31:42;6.03;;;3.20;;
12554;SDS011;6343;50.868;4.700;2023-07-08T14:34:09;4.55;;;2.80;;
12554;SDS011;6343;50.868;4.700;2023-07-08T14:36:36;6.63;;;3.17;;
12554;SDS011;6343;50.868;4.700;2023-07-08T14:39:12;7.07;;;3.65;;
12554;SDS011;6343;50.868;4.700;2023-07-08T14:41:39;7.32;;;3.10;;
12554;SDS011;6343;50.868;4.700;2023-07-08T14:44:18;8.45;;;2.92;;
12554;SDS011;6343;50.868;4.700;2023-07-08T14:46:45;7.70;;;3.45;;
12554;SDS011;6343;50.868;4.700;2023-07-08T14:49:14;6.22;;;3.47;;
12554;SDS011;6343;50.868;4.700;2023-07-08T14:51:41;6.63;;;3.30;;
12554;SDS011;6343;50.868;4.700;2023-07-08T14:54:07;8.70;;;3.30;;
12554;SDS011;6343;50.868;4.700;2023-07-08T14:56:33;8.80;;;3.20;;
12554;SDS011;6343;50.868;4.700;2023-07-08T14:58:59;3.58;;;2.42;;
12554;SDS011;6343;50.868;4.700;2023-07-08T15:01:25;7.57;;;3.08;;
12554;SDS011;6343;50.868;4.700;2023-07-08T15:03:55;9.98;;;3.33;;
12554;SDS011;6343;50.868;4.700;2023-07-08T15:06:21;6.40;;;3.63;;
12554;SDS011;6343;50.868;4.700;2023-07-08T15:08:47;7.85;;;3.08;;
12554;SDS011;6343;50.868;4.700;2023-07-08T15:11:13;6.75;;;2.67;;
12554;SDS011;6343;50.868;4.700;2023-07-08T15:13:40;8.48;;;3.50;;
12554;SDS011;6343;50.868;4.700;2023-07-08T15:16:13;9.77;;;3.70;;
12554;SDS011;6343;50.868;4.700;2023-07-08T15:18:40;7.63;;;3.30;;
12554;SDS011;6343;50.868;4.700;2023-07-08T15:21:12;5.85;;;3.70;;
12554;SDS011;6343;50.868;4.700;2023-07-08T15:23:39;11.52;;;4.55;;
12554;SDS011;6343;50.868;4.700;2023-07-08T15:26:05;6.50;;;3.00;;
12554;SDS011;6343;50.868;4.700;2023-07-08T15:28:48;6.03;;;3.05;;
12554;SDS011;6343;50.868;4.700;2023-07-08T15:31:25;5.53;;;3.22;;
12554;SDS011;6343;50.868;4.700;2023-07-08T15:33:54;8.13;;;3.75;;
12554;SDS011;6343;50.868;4.700;2023-07-08T15:36:20;5.57;;;3.92;;
12554;SDS011;6343;50.868;4.700;2023-07-08T15:38:46;8.25;;;4.30;;
12554;SDS011;6343;50.868;4.700;2023-07-08T15:41:15;7.90;;;4.95;;
12554;SDS011;6343;50.868;4.700;2023-07-08T15:43:43;5.78;;;3.20;;
12554;SDS011;6343;50.868;4.700;2023-07-08T15:46:09;8.80;;;3.78;;
12554;SDS011;6343;50.868;4.700;2023-07-08T15:48:35;4.63;;;3.72;;
12554;SDS011;6343;50.868;4.700;2023-07-08T15:51:01;9.38;;;3.97;;
12554;SDS011;6343;50.868;4.700;2023-07-08T15:53:27;7.85;;;4.53;;
12554;SDS011;6343;50.868;4.700;2023-07-08T15:55:53;3.80;;;3.17;;
12554;SDS011;6343;50.868;4.700;2023-07-08T15:58:27;5.53;;;3.88;;
12554;SDS011;6343;50.868;4.700;2023-07-08T16:00:53;6.72;;;3.97;;
12554;SDS011;6343;50.868;4.700;2023-07-08T16:03:24;7.68;;;3.80;;
12554;SDS011;6343;50.868;4.700;2023-07-08T16:05:53;4.93;;;3.80;;